Time;durP1;ratioP1;P1;durP2;ratioP2;P2;SDS_P1;SDS_P2;PMS_P1;PMS_P2;Temp;Humidity;BMP_temperature;BMP_pressure;BME280_temperature;BME280_humidity;BME280_pressure;Samples;Min_cycle;Max_cycle;Signal;HPM_P1;HPM_P2
2022/10/24 00:01:17;;;;;;;;;;;12.30;99.90;;;;;;4951566;28;19937;-55
2022/10/24 00:03:44;;;;;;;;;;;12.30;99.90;;;;;;4950217;28;19934;-55
2022/10/24 00:06:12;;;;;;;;;;;12.30;99.90;;;;;;4948310;28;19934;-56
2022/10/24 00:08:40;;;;;;;;;;;12.30;99.90;;;;;;4947668;29;19937;-55
2022/10/24 00:11:10;;;;;;;;;;;12.30;99.90;;;;;;4953587;29;20275;-55
2022/10/24 00:13:37;;;;;;;;;;;12.30;99.90;;;;;;4950273;29;19931;-55
2022/10/24 00:16:05;;;;;;;;;;;12.30;99.90;;;;;;4951096;28;19934;-55
2022/10/24 00:18:33;;;;;;;;;;;12.20;99.90;;;;;;4952725;29;19926;-62
2022/10/24 00:21:00;;;;;;;;;;;12.20;99.90;;;;;;4952014;29;20318;-58
2022/10/24 00:23:28;;;;;;;;;;;12.20;99.90;;;;;;4952018;29;19926;-58
2022/10/24 00:25:55;;;;;;;;;;;12.20;99.90;;;;;;4951654;28;19938;-61
2022/10/24 00:28:23;;;;;;;;;;;12.30;99.90;;;;;;4950153;29;19927;-58
2022/10/24 00:30:51;;;;;;;;;;;12.30;99.90;;;;;;4940442;29;19927;-59
2022/10/24 00:33:18;;;;;;;;;;;12.20;99.90;;;;;;4948597;28;19927;-57
2022/10/24 00:35:46;;;;;;;;;;;12.20;99.90;;;;;;4948572;29;19934;-54
2022/10/24 00:38:13;;;;;;;;;;;12.30;99.90;;;;;;4951798;29;19933;-55
2022/10/24 00:40:41;;;;;;;;;;;12.30;99.90;;;;;;4950837;29;19941;-55
2022/10/24 00:43:27;;;;;;;;;;;12.30;99.90;;;;;;4933673;29;19945;-57
2022/10/24 00:45:55;;;;;;;;;;;12.30;99.90;;;;;;4940489;29;19926;-55
2022/10/24 00:48:29;;;;;;;;;;;12.30;99.90;;;;;;4947276;29;19949;-56
2022/10/24 00:51:03;;;;;;;;;;;12.30;99.90;;;;;;4951568;29;19934;-54
2022/10/24 00:53:31;;;;;;;;;;;12.30;99.90;;;;;;4951790;28;19927;-55
2022/10/24 00:56:00;;;;;;;;;;;12.30;99.90;;;;;;4950762;29;19942;-55
2022/10/24 00:58:28;;;;;;;;;;;12.30;99.90;;;;;;4948339;29;19938;-55
2022/10/24 01:00:56;;;;;;;;;;;12.30;99.90;;;;;;4945778;28;20416;-55
2022/10/24 01:03:24;;;;;;;;;;;12.30;99.90;;;;;;4931304;29;19930;-55
2022/10/24 01:06:10;;;;;;;;;;;12.30;99.90;;;;;;4948209;29;19934;-55
2022/10/24 01:08:42;;;;;;;;;;;12.30;99.90;;;;;;4945599;29;20505;-55
2022/10/24 01:11:25;;;;;;;;;;;12.30;99.90;;;;;;4944025;29;19927;-55
2022/10/24 01:14:07;;;;;;;;;;;12.30;99.90;;;;;;4948616;29;19931;-54
2022/10/24 01:16:34;;;;;;;;;;;12.30;99.90;;;;;;4944728;29;19926;-55
2022/10/24 01:19:11;;;;;;;;;;;12.30;99.90;;;;;;4948819;29;20298;-58
2022/10/24 01:21:44;;;;;;;;;;;12.30;99.90;;;;;;4946358;28;20409;-56
2022/10/24 01:24:20;;;;;;;;;;;12.30;99.90;;;;;;4946660;29;19931;-58
2022/10/24 01:26:48;;;;;;;;;;;12.30;99.90;;;;;;4947457;29;19927;-54
2022/10/24 01:29:15;;;;;;;;;;;12.30;99.90;;;;;;4945692;28;19926;-55
2022/10/24 01:32:12;;;;;;;;;;;12.20;99.90;;;;;;4939735;28;19934;-58
2022/10/24 01:34:48;;;;;;;;;;;12.20;99.90;;;;;;4893078;28;19947;-54
2022/10/24 01:37:22;;;;;;;;;;;12.20;99.90;;;;;;4949909;29;20298;-55
2022/10/24 01:39:52;;;;;;;;;;;12.20;99.90;;;;;;4950224;29;19926;-54
2022/10/24 01:42:21;;;;;;;;;;;12.20;99.90;;;;;;4951399;29;19930;-55
2022/10/24 01:44:49;;;;;;;;;;;12.10;99.90;;;;;;4948945;29;19927;-54
2022/10/24 01:47:19;;;;;;;;;;;12.10;99.90;;;;;;4948001;29;19931;-54
2022/10/24 01:49:51;;;;;;;;;;;12.20;99.90;;;;;;4935672;29;19927;-54
2022/10/24 01:52:19;;;;;;;;;;;12.20;99.90;;;;;;4931439;29;20406;-56
2022/10/24 01:54:47;;;;;;;;;;;12.10;99.90;;;;;;4935644;28;19927;-55
2022/10/24 01:57:15;;;;;;;;;;;12.10;99.90;;;;;;4949979;29;19930;-55
2022/10/24 01:59:44;;;;;;;;;;;12.10;99.90;;;;;;4944935;29;19934;-55
2022/10/24 02:02:26;;;;;;;;;;;12.10;99.90;;;;;;4949980;29;19930;-55
2022/10/24 02:04:56;;;;;;;;;;;12.10;99.90;;;;;;4950460;28;19926;-54
2022/10/24 02:07:24;;;;;;;;;;;12.10;99.90;;;;;;4951132;29;19927;-54
2022/10/24 02:09:54;;;;;;;;;;;12.10;99.90;;;;;;4948141;29;19926;-54
2022/10/24 02:12:22;;;;;;;;;;;12.20;99.90;;;;;;4951041;29;20285;-55
2022/10/24 02:14:52;;;;;;;;;;;12.10;99.90;;;;;;4947841;29;20286;-54
2022/10/24 02:17:20;;;;;;;;;;;12.10;99.90;;;;;;4949100;29;19927;-55
2022/10/24 02:19:47;;;;;;;;;;;12.10;99.90;;;;;;4949170;29;19926;-55
2022/10/24 02:22:15;;;;;;;;;;;12.10;99.90;;;;;;4950336;29;19934;-55
2022/10/24 02:24:50;;;;;;;;;;;12.10;99.90;;;;;;4951374;29;19926;-55
2022/10/24 02:27:21;;;;;;;;;;;12.10;99.90;;;;;;4952965;29;20390;-55
2022/10/24 02:29:54;;;;;;;;;;;12.10;99.90;;;;;;4954016;29;19927;-55
2022/10/24 02:32:27;;;;;;;;;;;12.10;99.90;;;;;;4954056;29;19926;-54
2022/10/24 02:34:55;;;;;;;;;;;12.00;99.90;;;;;;4951262;29;19930;-54
2022/10/24 02:37:23;;;;;;;;;;;12.00;99.90;;;;;;4952086;29;19933;-54
2022/10/24 02:39:51;;;;;;;;;;;12.00;99.90;;;;;;4953905;29;19926;-54
2022/10/24 02:42:20;;;;;;;;;;;12.00;99.90;;;;;;4954014;29;19933;-54
2022/10/24 02:44:47;;;;;;;;;;;11.90;99.90;;;;;;4952544;29;19935;-54
2022/10/24 02:47:16;;;;;;;;;;;11.90;99.90;;;;;;4953664;29;19933;-54
2022/10/24 02:49:44;;;;;;;;;;;11.90;99.90;;;;;;4954076;29;19927;-55
2022/10/24 02:52:11;;;;;;;;;;;11.90;99.90;;;;;;4952009;29;20605;-55
2022/10/24 02:54:39;;;;;;;;;;;11.90;99.90;;;;;;4954151;29;19933;-55
2022/10/24 02:57:06;;;;;;;;;;;11.80;99.90;;;;;;4952941;29;19933;-55
2022/10/24 02:59:34;;;;;;;;;;;11.80;99.90;;;;;;4953863;29;19927;-55
2022/10/24 03:02:01;;;;;;;;;;;11.80;99.90;;;;;;4952534;29;19942;-55
2022/10/24 03:04:29;;;;;;;;;;;11.80;99.90;;;;;;4953266;28;19926;-57
2022/10/24 03:06:56;;;;;;;;;;;11.80;99.90;;;;;;4951539;28;19934;-54
2022/10/24 03:09:23;;;;;;;;;;;11.80;99.90;;;;;;4953511;29;19926;-55
2022/10/24 03:11:51;;;;;;;;;;;11.80;99.90;;;;;;4953750;29;19934;-55
2022/10/24 03:14:18;;;;;;;;;;;11.80;99.90;;;;;;4952718;29;19926;-55
2022/10/24 03:16:45;;;;;;;;;;;11.80;99.90;;;;;;4955526;28;19926;-55
2022/10/24 03:19:13;;;;;;;;;;;11.80;99.90;;;;;;4957608;29;19926;-55
2022/10/24 03:21:41;;;;;;;;;;;11.80;99.90;;;;;;4955853;29;19946;-55
2022/10/24 03:24:08;;;;;;;;;;;11.80;99.90;;;;;;4957298;29;19927;-58
2022/10/24 03:26:36;;;;;;;;;;;11.80;99.90;;;;;;4957671;29;19926;-54
2022/10/24 03:29:03;;;;;;;;;;;11.80;99.90;;;;;;4957452;29;19942;-53
2022/10/24 03:31:31;;;;;;;;;;;11.70;99.90;;;;;;4956164;29;19934;-55
2022/10/24 03:33:58;;;;;;;;;;;11.70;99.90;;;;;;4957427;29;19926;-54
2022/10/24 03:36:26;;;;;;;;;;;11.70;99.90;;;;;;4956923;28;19926;-55
2022/10/24 03:38:53;;;;;;;;;;;11.70;99.90;;;;;;4957330;28;19934;-54
2022/10/24 03:41:21;;;;;;;;;;;11.70;99.90;;;;;;4957207;29;19931;-54
2022/10/24 03:43:48;;;;;;;;;;;11.70;99.90;;;;;;4957164;29;20378;-57
2022/10/24 03:46:15;;;;;;;;;;;11.70;99.90;;;;;;4956988;29;19926;-55
2022/10/24 03:48:43;;;;;;;;;;;11.70;99.90;;;;;;4956929;29;20282;-54
2022/10/24 03:51:10;;;;;;;;;;;11.70;99.90;;;;;;4956693;29;19931;-54
2022/10/24 03:53:37;;;;;;;;;;;11.70;99.90;;;;;;4955946;29;20424;-54
2022/10/24 03:56:05;;;;;;;;;;;11.70;99.90;;;;;;4956973;29;19927;-53
2022/10/24 03:58:33;;;;;;;;;;;11.70;99.90;;;;;;4956947;29;19934;-54
2022/10/24 04:01:00;;;;;;;;;;;11.70;99.90;;;;;;4956683;29;20270;-54
2022/10/24 04:03:28;;;;;;;;;;;11.80;99.90;;;;;;4956779;29;19932;-54
2022/10/24 04:05:55;;;;;;;;;;;11.80;99.90;;;;;;4956750;28;19937;-53
2022/10/24 04:08:22;;;;;;;;;;;11.70;99.90;;;;;;4956661;29;19926;-54
2022/10/24 04:10:50;;;;;;;;;;;11.70;99.90;;;;;;4956665;29;19934;-53
2022/10/24 04:13:17;;;;;;;;;;;11.70;99.90;;;;;;4956718;29;20003;-54
2022/10/24 04:15:44;;;;;;;;;;;11.80;99.90;;;;;;4956129;29;20290;-54
2022/10/24 04:18:12;;;;;;;;;;;11.70;99.90;;;;;;4955028;29;19926;-53
2022/10/24 04:20:39;;;;;;;;;;;11.70;99.90;;;;;;4956505;29;19927;-54
2022/10/24 04:23:07;;;;;;;;;;;11.70;99.90;;;;;;4956502;29;19942;-54
2022/10/24 04:25:34;;;;;;;;;;;11.70;99.90;;;;;;4956342;29;19949;-54
2022/10/24 04:28:02;;;;;;;;;;;11.70;99.90;;;;;;4955547;28;19934;-55
2022/10/24 04:30:29;;;;;;;;;;;11.70;99.90;;;;;;4956382;29;20367;-58
2022/10/24 04:32:57;;;;;;;;;;;11.70;99.90;;;;;;4956260;29;20371;-54
2022/10/24 04:35:24;;;;;;;;;;;11.60;99.90;;;;;;4955916;29;19926;-53
2022/10/24 04:37:52;;;;;;;;;;;11.60;99.90;;;;;;4956264;29;20330;-53
2022/10/24 04:40:19;;;;;;;;;;;11.60;99.90;;;;;;4955089;29;20294;-54
2022/10/24 04:42:47;;;;;;;;;;;11.60;99.90;;;;;;4956100;29;20009;-53
2022/10/24 04:45:14;;;;;;;;;;;11.50;99.90;;;;;;4955989;29;20457;-53
2022/10/24 04:47:42;;;;;;;;;;;11.50;99.90;;;;;;4949909;29;19953;-54
2022/10/24 04:50:09;;;;;;;;;;;11.50;99.90;;;;;;4952907;29;19930;-54
2022/10/24 04:52:37;;;;;;;;;;;11.50;99.90;;;;;;4951624;29;19927;-54
2022/10/24 04:55:04;;;;;;;;;;;11.50;99.90;;;;;;4952555;29;20326;-58
2022/10/24 04:57:31;;;;;;;;;;;11.50;99.90;;;;;;4948399;29;19930;-58
2022/10/24 04:59:59;;;;;;;;;;;11.50;99.90;;;;;;4932135;29;19931;-58
2022/10/24 05:02:26;;;;;;;;;;;11.50;99.90;;;;;;4931138;29;19931;-59
2022/10/24 05:04:54;;;;;;;;;;;11.50;99.90;;;;;;4929934;29;19927;-55
2022/10/24 05:07:21;;;;;;;;;;;11.50;99.90;;;;;;4932689;29;19935;-57
2022/10/24 05:09:48;;;;;;;;;;;11.50;99.90;;;;;;4952206;28;19926;-59
2022/10/24 05:12:16;;;;;;;;;;;11.50;99.90;;;;;;4952347;29;19927;-59
2022/10/24 05:14:48;;;;;;;;;;;11.50;99.90;;;;;;4951891;28;20393;-56
2022/10/24 05:17:16;;;;;;;;;;;11.50;99.90;;;;;;4951450;28;19927;-58
2022/10/24 05:19:43;;;;;;;;;;;11.50;99.90;;;;;;4951891;29;19937;-57
2022/10/24 05:22:10;;;;;;;;;;;11.50;99.90;;;;;;4948243;28;19927;-60
2022/10/24 05:24:38;;;;;;;;;;;11.50;99.90;;;;;;4948478;29;19927;-57
2022/10/24 05:27:06;;;;;;;;;;;11.40;99.90;;;;;;4947092;29;19934;-55
2022/10/24 05:29:33;;;;;;;;;;;11.50;99.90;;;;;;4949025;29;19930;-56
2022/10/24 05:32:00;;;;;;;;;;;11.50;99.90;;;;;;4948065;28;19933;-54
2022/10/24 05:34:28;;;;;;;;;;;11.50;99.90;;;;;;4947747;29;20301;-54
2022/10/24 05:36:55;;;;;;;;;;;11.40;99.90;;;;;;4950823;28;19934;-54
2022/10/24 05:39:23;;;;;;;;;;;11.50;99.90;;;;;;4950511;28;19942;-54
2022/10/24 05:41:50;;;;;;;;;;;11.50;99.90;;;;;;4949380;29;19926;-55
2022/10/24 05:44:21;;;;;;;;;;;11.50;99.90;;;;;;4948225;29;19937;-54
2022/10/24 05:46:49;;;;;;;;;;;11.50;99.90;;;;;;4947470;28;19927;-55
2022/10/24 05:49:16;;;;;;;;;;;11.50;99.90;;;;;;4933017;29;19938;-54
2022/10/24 05:51:44;;;;;;;;;;;11.50;99.90;;;;;;4930963;29;19931;-54
2022/10/24 05:54:11;;;;;;;;;;;11.50;99.90;;;;;;4950277;29;19926;-55
2022/10/24 05:56:43;;;;;;;;;;;11.50;99.90;;;;;;4951415;29;19926;-55
2022/10/24 05:59:11;;;;;;;;;;;11.50;99.90;;;;;;4949605;28;20335;-57
2022/10/24 06:01:39;;;;;;;;;;;11.50;99.90;;;;;;4951118;29;19926;-55
2022/10/24 06:04:06;;;;;;;;;;;11.50;99.90;;;;;;4938193;29;19927;-55
2022/10/24 06:06:41;;;;;;;;;;;11.50;99.90;;;;;;4944797;29;20402;-55
2022/10/24 06:09:08;;;;;;;;;;;11.50;99.90;;;;;;4951119;29;19930;-55
2022/10/24 06:11:36;;;;;;;;;;;11.50;99.90;;;;;;4951201;28;19926;-54
2022/10/24 06:14:04;;;;;;;;;;;11.50;99.90;;;;;;4950770;29;19933;-54
2022/10/24 06:16:33;;;;;;;;;;;11.50;99.90;;;;;;4949895;29;19930;-54
2022/10/24 06:19:00;;;;;;;;;;;11.50;99.90;;;;;;4942069;29;20371;-55
2022/10/24 06:21:28;;;;;;;;;;;11.40;99.90;;;;;;4944539;29;20279;-55
2022/10/24 06:23:56;;;;;;;;;;;11.40;99.90;;;;;;4946636;28;19930;-56
2022/10/24 06:26:23;;;;;;;;;;;11.40;99.90;;;;;;4946186;29;19942;-59
2022/10/24 06:28:51;;;;;;;;;;;11.40;99.90;;;;;;4947399;28;20286;-55
2022/10/24 06:31:19;;;;;;;;;;;11.30;99.90;;;;;;4929662;29;19934;-56
2022/10/24 06:33:47;;;;;;;;;;;11.40;99.90;;;;;;4935934;29;19931;-55
2022/10/24 06:36:14;;;;;;;;;;;11.30;99.90;;;;;;4939591;29;19934;-55
2022/10/24 06:38:42;;;;;;;;;;;11.30;99.90;;;;;;4945860;29;19945;-54
2022/10/24 06:41:10;;;;;;;;;;;11.30;99.90;;;;;;4949621;29;19926;-56
2022/10/24 06:43:40;;;;;;;;;;;11.30;99.90;;;;;;4948574;29;19926;-53
2022/10/24 06:46:08;;;;;;;;;;;11.30;99.90;;;;;;4947119;28;19927;-54
2022/10/24 06:48:36;;;;;;;;;;;11.30;99.90;;;;;;4939084;29;20290;-54
2022/10/24 06:51:04;;;;;;;;;;;11.30;99.90;;;;;;4928676;29;20774;-54
2022/10/24 06:53:32;;;;;;;;;;;11.30;99.90;;;;;;4946181;29;19931;-54
2022/10/24 06:56:00;;;;;;;;;;;11.20;99.90;;;;;;4940035;29;19938;-54
2022/10/24 06:58:31;;;;;;;;;;;11.20;99.90;;;;;;4945981;28;20429;-55
2022/10/24 07:00:59;;;;;;;;;;;11.20;99.90;;;;;;4944902;29;19927;-53
2022/10/24 07:03:27;;;;;;;;;;;11.20;99.90;;;;;;4943326;29;19927;-53
2022/10/24 07:05:54;;;;;;;;;;;11.20;99.90;;;;;;4940860;29;19937;-54
2022/10/24 07:08:22;;;;;;;;;;;11.20;99.90;;;;;;4949765;28;19933;-53
2022/10/24 07:10:49;;;;;;;;;;;11.20;99.90;;;;;;4948570;29;19931;-53
2022/10/24 07:13:16;;;;;;;;;;;11.20;99.90;;;;;;4949526;29;19933;-55
2022/10/24 07:15:44;;;;;;;;;;;11.20;99.90;;;;;;4948376;29;19927;-59
2022/10/24 07:18:15;;;;;;;;;;;11.20;99.90;;;;;;4932741;29;19938;-55
2022/10/24 07:20:42;;;;;;;;;;;11.20;99.90;;;;;;4937172;29;19946;-54
2022/10/24 07:23:09;;;;;;;;;;;11.20;99.90;;;;;;4949826;29;19927;-53
2022/10/24 07:25:38;;;;;;;;;;;11.20;99.90;;;;;;4946997;29;20415;-55
2022/10/24 07:28:06;;;;;;;;;;;11.20;99.90;;;;;;4942658;29;19927;-55
2022/10/24 07:30:33;;;;;;;;;;;11.20;99.90;;;;;;4945405;29;19927;-59
2022/10/24 07:33:01;;;;;;;;;;;11.20;99.90;;;;;;4948681;29;20481;-58
2022/10/24 07:35:28;;;;;;;;;;;11.20;99.90;;;;;;4945416;29;19938;-59
2022/10/24 07:37:56;;;;;;;;;;;11.20;99.90;;;;;;4939430;28;19950;-55
2022/10/24 07:40:23;;;;;;;;;;;11.30;99.90;;;;;;4944777;29;20302;-59
2022/10/24 07:42:51;;;;;;;;;;;11.30;99.90;;;;;;4942171;29;19927;-60
2022/10/24 07:45:18;;;;;;;;;;;11.30;99.90;;;;;;4928945;28;19927;-53
2022/10/24 07:47:46;;;;;;;;;;;11.30;99.90;;;;;;4934301;28;19949;-57
2022/10/24 07:50:16;;;;;;;;;;;11.30;99.90;;;;;;4938107;29;20144;-54
2022/10/24 07:52:43;;;;;;;;;;;11.30;99.90;;;;;;4935492;29;19927;-54
2022/10/24 07:55:10;;;;;;;;;;;11.30;99.90;;;;;;4944560;29;20298;-56
2022/10/24 07:57:38;;;;;;;;;;;11.30;99.90;;;;;;4949898;28;19937;-56
2022/10/24 08:00:06;;;;;;;;;;;11.40;99.90;;;;;;4947403;29;19927;-55
2022/10/24 08:02:38;;;;;;;;;;;11.40;99.90;;;;;;4944583;28;19926;-58
2022/10/24 08:05:06;;;;;;;;;;;11.40;99.90;;;;;;4943898;29;19933;-55
2022/10/24 08:07:34;;;;;;;;;;;11.40;99.90;;;;;;4936811;29;19926;-55
2022/10/24 08:10:03;;;;;;;;;;;11.40;99.90;;;;;;4942496;29;19934;-55
2022/10/24 08:12:30;;;;;;;;;;;11.40;99.90;;;;;;4950332;29;20306;-56
2022/10/24 08:14:58;;;;;;;;;;;11.50;99.90;;;;;;4952278;29;19927;-55
2022/10/24 08:17:25;;;;;;;;;;;11.50;99.90;;;;;;4951944;29;19934;-55
2022/10/24 08:19:53;;;;;;;;;;;11.50;99.90;;;;;;4941817;29;19946;-54
2022/10/24 08:22:20;;;;;;;;;;;11.50;99.90;;;;;;4936924;29;19927;-54
2022/10/24 08:24:48;;;;;;;;;;;11.60;99.90;;;;;;4949046;28;19927;-55
2022/10/24 08:27:15;;;;;;;;;;;11.50;99.90;;;;;;4953294;29;19927;-57
2022/10/24 08:29:43;;;;;;;;;;;11.60;99.90;;;;;;4947690;29;19930;-55
2022/10/24 08:32:10;;;;;;;;;;;11.60;99.90;;;;;;4951423;29;19934;-55
2022/10/24 08:34:37;;;;;;;;;;;11.60;99.90;;;;;;4944336;28;19934;-54
2022/10/24 08:37:05;;;;;;;;;;;11.70;99.90;;;;;;4933545;29;19927;-55
2022/10/24 08:39:32;;;;;;;;;;;11.70;99.90;;;;;;4951887;29;19927;-55
2022/10/24 08:42:01;;;;;;;;;;;11.70;99.90;;;;;;4945936;29;19956;-55
2022/10/24 08:44:34;;;;;;;;;;;11.80;99.90;;;;;;4952670;29;19927;-59
2022/10/24 08:47:05;;;;;;;;;;;11.90;99.90;;;;;;4952619;29;20298;-58
2022/10/24 08:49:35;;;;;;;;;;;11.90;99.90;;;;;;4946728;28;19938;-55
2022/10/24 08:52:11;;;;;;;;;;;11.90;99.90;;;;;;4934360;29;19931;-56
2022/10/24 08:54:41;;;;;;;;;;;12.00;99.90;;;;;;4945194;29;19927;-57
2022/10/24 08:57:16;;;;;;;;;;;12.00;99.90;;;;;;4932727;29;19927;-56
2022/10/24 08:59:43;;;;;;;;;;;12.00;99.90;;;;;;4942369;28;19934;-55
2022/10/24 09:02:17;;;;;;;;;;;12.10;99.90;;;;;;4935632;29;19938;-57
2022/10/24 09:05:07;;;;;;;;;;;12.10;99.90;;;;;;4946277;29;20283;-57
2022/10/24 09:07:35;;;;;;;;;;;12.10;99.90;;;;;;4936511;29;19926;-58
2022/10/24 09:10:14;;;;;;;;;;;12.10;99.90;;;;;;4951143;29;19937;-55
2022/10/24 09:12:42;;;;;;;;;;;12.10;99.90;;;;;;4943146;29;19934;-54
2022/10/24 09:15:13;;;;;;;;;;;12.10;99.90;;;;;;4951915;28;20286;-54
2022/10/24 09:17:41;;;;;;;;;;;12.10;99.90;;;;;;4951793;29;20382;-55
2022/10/24 09:20:15;;;;;;;;;;;12.10;99.90;;;;;;4950264;29;19927;-54
2022/10/24 09:22:43;;;;;;;;;;;12.20;99.90;;;;;;4945364;29;20318;-54
2022/10/24 09:25:13;;;;;;;;;;;12.10;99.90;;;;;;4937670;29;19934;-54
2022/10/24 09:27:41;;;;;;;;;;;12.20;99.90;;;;;;4937243;29;20294;-54
2022/10/24 09:30:15;;;;;;;;;;;12.20;99.90;;;;;;4948258;29;19926;-54
2022/10/24 09:32:43;;;;;;;;;;;12.20;99.90;;;;;;4938045;29;19934;-54
2022/10/24 09:35:15;;;;;;;;;;;12.40;99.90;;;;;;4944324;29;19950;-54
2022/10/24 09:37:44;;;;;;;;;;;12.40;99.90;;;;;;4933094;29;19931;-54
2022/10/24 09:40:19;;;;;;;;;;;12.40;99.90;;;;;;4935180;29;19938;-54
2022/10/24 09:42:59;;;;;;;;;;;12.50;99.90;;;;;;4932381;29;19927;-55
2022/10/24 09:45:26;;;;;;;;;;;12.60;99.90;;;;;;4932501;29;19927;-55
2022/10/24 09:47:55;;;;;;;;;;;12.70;99.90;;;;;;4938888;29;19933;-54
2022/10/24 09:50:23;;;;;;;;;;;12.70;99.90;;;;;;4950373;29;19926;-54
2022/10/24 09:52:52;;;;;;;;;;;12.80;99.90;;;;;;4951027;29;19927;-55
2022/10/24 09:55:21;;;;;;;;;;;12.80;99.90;;;;;;4934451;28;19931;-54
2022/10/24 09:57:52;;;;;;;;;;;12.80;99.90;;;;;;4948149;29;19926;-57
2022/10/24 10:00:28;;;;;;;;;;;12.90;99.90;;;;;;4945600;28;19933;-56
2022/10/24 10:03:10;;;;;;;;;;;13.00;99.90;;;;;;4937658;29;19941;-55
2022/10/24 10:05:42;;;;;;;;;;;13.10;99.90;;;;;;4924318;29;19927;-55
2022/10/24 10:08:14;;;;;;;;;;;13.20;99.90;;;;;;4940302;28;19926;-54
2022/10/24 10:10:41;;;;;;;;;;;13.30;99.90;;;;;;4942983;29;20429;-54
2022/10/24 10:13:15;;;;;;;;;;;13.40;99.90;;;;;;4938752;29;20294;-55
2022/10/24 10:15:42;;;;;;;;;;;13.40;99.90;;;;;;4950282;29;19938;-56
2022/10/24 10:18:19;;;;;;;;;;;13.40;99.90;;;;;;4950614;29;19927;-57
2022/10/24 10:20:56;;;;;;;;;;;13.50;99.90;;;;;;4936824;28;19927;-57
2022/10/24 10:23:43;;;;;;;;;;;13.50;99.90;;;;;;4940811;28;19934;-57
2022/10/24 10:26:10;;;;;;;;;;;13.50;99.90;;;;;;4945810;28;19927;-55
2022/10/24 10:29:01;;;;;;;;;;;13.50;99.90;;;;;;4934000;29;19931;-56
2022/10/24 10:31:33;;;;;;;;;;;13.50;99.90;;;;;;4929069;29;19949;-57
2022/10/24 10:34:07;;;;;;;;;;;13.50;99.90;;;;;;4944313;28;20298;-58
2022/10/24 10:36:40;;;;;;;;;;;13.50;99.90;;;;;;4936435;29;19926;-55
2022/10/24 10:39:10;;;;;;;;;;;13.50;99.90;;;;;;4935059;28;19926;-56
2022/10/24 10:41:38;;;;;;;;;;;13.50;99.90;;;;;;4938323;29;19930;-55
2022/10/24 10:44:05;;;;;;;;;;;13.50;99.90;;;;;;4943936;29;19946;-54
2022/10/24 10:46:32;;;;;;;;;;;13.50;99.90;;;;;;4950790;29;19926;-56
2022/10/24 10:49:19;;;;;;;;;;;13.40;99.90;;;;;;4949628;29;19926;-54
2022/10/24 10:51:49;;;;;;;;;;;13.40;99.90;;;;;;4935715;29;19934;-56
2022/10/24 10:54:29;;;;;;;;;;;13.40;99.90;;;;;;4942084;29;19949;-54
2022/10/24 10:57:05;;;;;;;;;;;13.40;99.90;;;;;;4930000;29;20433;-55
2022/10/24 10:59:45;;;;;;;;;;;13.40;99.90;;;;;;4935546;28;19931;-54
2022/10/24 11:02:12;;;;;;;;;;;13.40;99.90;;;;;;4931104;29;19931;-54
2022/10/24 11:04:44;;;;;;;;;;;13.40;99.90;;;;;;4949180;29;19926;-54
2022/10/24 11:07:11;;;;;;;;;;;13.50;99.90;;;;;;4931810;29;19926;-54
2022/10/24 11:09:55;;;;;;;;;;;13.60;99.90;;;;;;4950317;29;20390;-54
2022/10/24 11:12:31;;;;;;;;;;;13.60;99.90;;;;;;4949594;28;20388;-54
2022/10/24 11:15:06;;;;;;;;;;;13.60;99.90;;;;;;4950373;29;19930;-54
2022/10/24 11:17:41;;;;;;;;;;;13.60;99.90;;;;;;4937933;29;19938;-54
2022/10/24 11:20:20;;;;;;;;;;;13.60;99.90;;;;;;4947636;29;19931;-54
2022/10/24 11:22:50;;;;;;;;;;;13.60;99.90;;;;;;4941402;29;20325;-55
2022/10/24 11:25:24;;;;;;;;;;;13.60;99.90;;;;;;4936098;29;19927;-54
2022/10/24 11:27:57;;;;;;;;;;;13.60;99.90;;;;;;4935263;28;19926;-54
2022/10/24 11:30:34;;;;;;;;;;;13.70;99.90;;;;;;4935099;29;19927;-55
2022/10/24 11:33:10;;;;;;;;;;;13.90;99.90;;;;;;4942188;29;19926;-56
2022/10/24 11:35:43;;;;;;;;;;;14.10;99.90;;;;;;4938110;29;19934;-55
2022/10/24 11:38:11;;;;;;;;;;;14.30;99.90;;;;;;4921665;29;19935;-54
2022/10/24 11:40:39;;;;;;;;;;;14.50;99.90;;;;;;4950840;29;20014;-54
2022/10/24 11:43:13;;;;;;;;;;;14.80;99.90;;;;;;4944923;28;19930;-55
2022/10/24 11:45:45;;;;;;;;;;;15.20;99.90;;;;;;4938250;29;19949;-54
2022/10/24 11:48:15;;;;;;;;;;;15.30;99.90;;;;;;4945510;29;20436;-54
2022/10/24 11:50:50;;;;;;;;;;;15.40;99.90;;;;;;4936693;29;19927;-54
2022/10/24 11:53:30;;;;;;;;;;;15.20;99.90;;;;;;4942634;29;19934;-54
2022/10/24 11:56:05;;;;;;;;;;;15.10;99.90;;;;;;4934765;29;19938;-55
2022/10/24 11:58:35;;;;;;;;;;;15.00;99.90;;;;;;4941300;28;20414;-54
2022/10/24 12:01:14;;;;;;;;;;;14.90;99.90;;;;;;4940551;28;19934;-54
2022/10/24 12:04:01;;;;;;;;;;;14.80;99.90;;;;;;4948844;28;19927;-54
2022/10/24 12:06:31;;;;;;;;;;;14.80;99.90;;;;;;4934595;29;19934;-56
2022/10/24 12:09:11;;;;;;;;;;;14.70;99.90;;;;;;4940108;29;19927;-55
2022/10/24 12:11:57;;;;;;;;;;;14.60;99.90;;;;;;4935601;29;19927;-57
2022/10/24 12:14:24;;;;;;;;;;;14.60;99.90;;;;;;4946640;28;19941;-58
2022/10/24 12:17:12;;;;;;;;;;;14.50;99.90;;;;;;4947851;29;19927;-56
2022/10/24 12:19:40;;;;;;;;;;;14.50;99.90;;;;;;4949109;29;19933;-55
2022/10/24 12:22:13;;;;;;;;;;;14.50;99.90;;;;;;4937943;29;20340;-56
2022/10/24 12:24:40;;;;;;;;;;;14.50;99.90;;;;;;4951912;29;19933;-57
2022/10/24 12:27:20;;;;;;;;;;;14.50;99.90;;;;;;4936913;29;20415;-54
2022/10/24 12:30:00;;;;;;;;;;;14.50;99.90;;;;;;4941232;29;20806;-55
2022/10/24 12:32:38;;;;;;;;;;;14.50;99.90;;;;;;4935743;29;19930;-56
2022/10/24 12:35:24;;;;;;;;;;;14.50;99.90;;;;;;4950138;29;19935;-56
2022/10/24 12:37:57;;;;;;;;;;;14.90;99.90;;;;;;4950571;29;19930;-56
2022/10/24 12:40:43;;;;;;;;;;;15.70;99.90;;;;;;4951106;29;19930;-56
2022/10/24 12:43:13;;;;;;;;;;;16.50;99.90;;;;;;4943908;28;19926;-60
2022/10/24 12:45:41;;;;;;;;;;;17.20;99.90;;;;;;4933897;29;19927;-59
2022/10/24 12:48:27;;;;;;;;;;;17.40;99.90;;;;;;4939642;29;19926;-57
2022/10/24 12:51:03;;;;;;;;;;;17.50;99.90;;;;;;4938897;29;21934;-56
2022/10/24 12:53:32;;;;;;;;;;;17.50;99.90;;;;;;4944993;29;19926;-56
2022/10/24 12:56:05;;;;;;;;;;;17.50;99.90;;;;;;4953069;29;19927;-58
2022/10/24 12:58:37;;;;;;;;;;;17.30;99.90;;;;;;4947962;28;19927;-56
2022/10/24 13:01:07;;;;;;;;;;;17.00;99.90;;;;;;4943344;28;19927;-56
2022/10/24 13:03:41;;;;;;;;;;;16.80;99.90;;;;;;4950941;29;19949;-59
2022/10/24 13:06:13;;;;;;;;;;;16.80;99.90;;;;;;4935030;29;19972;-59
2022/10/24 13:08:43;;;;;;;;;;;16.90;99.90;;;;;;4943658;29;19926;-59
2022/10/24 13:11:36;;;;;;;;;;;17.30;99.90;;;;;;4951398;29;19927;-60
2022/10/24 13:14:15;;;;;;;;;;;17.90;99.90;;;;;;4951575;28;19927;-57
2022/10/24 13:16:59;;;;;;;;;;;18.30;99.90;;;;;;4950659;29;20290;-56
2022/10/24 13:19:27;;;;;;;;;;;18.50;99.90;;;;;;4950910;28;19934;-56
2022/10/24 13:21:56;;;;;;;;;;;18.70;99.90;;;;;;4942721;29;19941;-56
2022/10/24 13:24:28;;;;;;;;;;;18.90;99.90;;;;;;4949979;28;19937;-55
2022/10/24 13:26:55;;;;;;;;;;;18.70;99.90;;;;;;4950862;29;19926;-56
2022/10/24 13:29:23;;;;;;;;;;;18.30;99.90;;;;;;4946955;29;19962;-56
2022/10/24 13:31:51;;;;;;;;;;;18.00;99.90;;;;;;4931392;29;19927;-56
2022/10/24 13:34:38;;;;;;;;;;;17.60;99.90;;;;;;4949836;28;20279;-56
2022/10/24 13:37:13;;;;;;;;;;;17.40;99.90;;;;;;4949536;29;20529;-56
2022/10/24 13:39:44;;;;;;;;;;;17.10;99.90;;;;;;4944037;29;19930;-56
2022/10/24 13:42:22;;;;;;;;;;;16.80;99.90;;;;;;4942655;29;19930;-56
2022/10/24 13:44:51;;;;;;;;;;;16.50;99.90;;;;;;4948516;29;19930;-56
2022/10/24 13:47:24;;;;;;;;;;;16.20;99.90;;;;;;4943120;29;19961;-58
2022/10/24 13:49:55;;;;;;;;;;;16.00;99.90;;;;;;4950406;28;19949;-58
2022/10/24 13:52:31;;;;;;;;;;;15.70;99.90;;;;;;4942568;28;19927;-58
2022/10/24 13:55:01;;;;;;;;;;;15.60;99.90;;;;;;4966190;28;19937;-58
2022/10/24 13:57:32;;;;;;;;;;;15.50;99.90;;;;;;4950477;29;19934;-56
2022/10/24 14:00:01;;;;;;;;;;;15.40;99.90;;;;;;4944475;28;19934;-58
2022/10/24 14:02:38;;;;;;;;;;;15.30;99.90;;;;;;4942880;28;20309;-56
2022/10/24 14:05:06;;;;;;;;;;;15.20;99.90;;;;;;4949096;28;19948;-57
2022/10/24 14:07:33;;;;;;;;;;;15.10;99.90;;;;;;4937822;28;19934;-59
2022/10/24 14:10:07;;;;;;;;;;;15.00;99.90;;;;;;4946240;29;19926;-56
2022/10/24 14:12:36;;;;;;;;;;;15.00;99.90;;;;;;4940446;28;20277;-57
2022/10/24 14:15:05;;;;;;;;;;;15.00;99.90;;;;;;4943007;29;20314;-54
2022/10/24 14:17:34;;;;;;;;;;;14.90;99.90;;;;;;4947053;28;19933;-54
2022/10/24 14:20:08;;;;;;;;;;;14.90;99.90;;;;;;4950104;28;20506;-54
2022/10/24 14:22:40;;;;;;;;;;;14.80;99.90;;;;;;4943626;28;20298;-54
2022/10/24 14:25:21;;;;;;;;;;;14.80;99.90;;;;;;4943169;28;19931;-54
2022/10/24 14:27:51;;;;;;;;;;;14.80;99.90;;;;;;4948292;29;19927;-55
2022/10/24 14:30:21;;;;;;;;;;;14.70;99.90;;;;;;4949719;28;19930;-54
2022/10/24 14:32:48;;;;;;;;;;;14.70;99.90;;;;;;4947725;28;20011;-54
2022/10/24 14:35:16;;;;;;;;;;;15.00;99.90;;;;;;4932500;29;20401;-54